Terminal Aerodrome Forecast
Issued by NWS Cleveland, OH

Home | Current Version | Previous Version | Text Only | Print | Product List | Glossary On
Versions: 1 2 3 4 5 6 7 8 9 10 11 12 13 14 15 16 17 18
640
FTUS41 KCLE 282326
TAFTOL
TAF
KTOL 282326Z 2900/2924 08012KT P6SM OVC015
     FM290700 02004KT P6SM OVC007
     FM290900 VRB03KT 4SM BR OVC007
     FM291400 04004KT P6SM OVC007
     FM291500 04006KT P6SM OVC015=

USA.gov is the U.S. government's official web portal to all federal, state and local government web resources and services.